createdAt,value
2022-12-25T00:00:21.203Z,123.28
2022-12-25T00:01:27.397Z,125.18
2022-12-25T00:02:31.256Z,126.97
2022-12-25T00:03:34.767Z,120.20
2022-12-25T00:04:39.218Z,167.82
2022-12-25T00:05:43.418Z,153.32
2022-12-25T00:06:47.562Z,114.97
2022-12-25T00:07:51.336Z,116.80
2022-12-25T00:08:55.586Z,114.50
2022-12-25T00:09:59.890Z,129.15
2022-12-25T00:11:06.097Z,126.57
2022-12-25T00:12:09.022Z,123.28
2022-12-25T00:13:11.369Z,133.05
2022-12-25T00:14:13.888Z,119.88
2022-12-25T00:15:16.214Z,127.80
2022-12-25T00:16:19.926Z,122.03
2022-12-25T00:17:22.351Z,117.07
2022-12-25T00:18:24.783Z,122.13
2022-12-25T00:19:27.048Z,114.90
2022-12-25T00:20:29.259Z,128.77
2022-12-25T00:21:32.124Z,119.20
2022-12-25T00:22:34.448Z,129.40
2022-12-25T00:23:36.830Z,127.72
2022-12-25T00:24:39.163Z,140.95
2022-12-25T00:25:42.456Z,122.03
2022-12-25T00:26:44.652Z,120.32
2022-12-25T00:27:47.112Z,114.05
2022-12-25T00:28:52.432Z,126.28
2022-12-25T00:29:55.503Z,123.65
2022-12-25T00:30:59.882Z,114.97
2022-12-25T00:32:04.883Z,123.80
2022-12-25T00:33:08.163Z,131.63
2022-12-25T00:34:11.564Z,129.55
2022-12-25T00:35:16.318Z,129.48
2022-12-25T00:36:21.802Z,128.25
2022-12-25T00:37:26.095Z,151.88
2022-12-25T00:38:29.352Z,159.85
2022-12-25T00:39:33.420Z,166.00
2022-12-25T00:40:43.313Z,198.05
2022-12-25T00:42:05.621Z,182.63
2022-12-25T00:43:10.165Z,176.30
2022-12-25T00:44:14.759Z,162.63
2022-12-25T00:45:18.961Z,154.88
2022-12-25T00:46:22.753Z,164.43
2022-12-25T00:47:27.253Z,149.77
2022-12-25T00:48:32.876Z,143.45
2022-12-25T00:49:37.332Z,128.38
2022-12-25T00:50:41.183Z,138.07
2022-12-25T00:51:45.219Z,127.90
2022-12-25T00:52:48.835Z,137.15
2022-12-25T00:53:55.594Z,148.02
2022-12-25T00:54:59.181Z,133.65
2022-12-25T00:56:04.134Z,141.85
2022-12-25T00:57:08.271Z,131.80
2022-12-25T00:58:11.053Z,138.80
2022-12-25T00:59:17.786Z,128.50
2022-12-25T01:00:21.934Z,113.45
2022-12-25T01:01:25.550Z,124.22
2022-12-25T01:02:30.732Z,106.55
2022-12-25T01:03:35.017Z,145.05
2022-12-25T01:04:39.560Z,116.90
2022-12-25T01:05:42.955Z,134.45
2022-12-25T01:06:49.781Z,118.85
2022-12-25T01:07:54.792Z,234.27
2022-12-25T01:09:17.021Z,110.63
2022-12-25T01:10:23.603Z,89.28
2022-12-25T01:11:29.478Z,80.70
2022-12-25T01:12:35.606Z,118.15
2022-12-25T01:13:40.917Z,103.30
2022-12-25T01:14:46.249Z,82.45
2022-12-25T01:15:53.464Z,77.88
2022-12-25T01:16:57.048Z,62.20
2022-12-25T01:18:07.751Z,80.35
2022-12-25T01:19:13.497Z,95.85
2022-12-25T01:20:24.159Z,109.28
2022-12-25T01:21:28.647Z,73.63
2022-12-25T01:22:32.159Z,76.20
2022-12-25T01:23:36.153Z,68.28
2022-12-25T01:24:40.061Z,145.13
2022-12-25T01:25:44.043Z,97.47
2022-12-25T01:26:49.468Z,58.75
2022-12-25T01:27:54.096Z,53.50
2022-12-25T01:28:58.673Z,72.13
2022-12-25T01:30:02.284Z,77.95
2022-12-25T01:31:06.391Z,72.53
2022-12-25T01:32:10.251Z,70.20
2022-12-25T01:33:15.118Z,69.63
2022-12-25T01:34:19.468Z,63.88
2022-12-25T01:35:23.238Z,62.92
2022-12-25T01:36:27.227Z,56.00
2022-12-25T01:37:31.738Z,59.00
2022-12-25T01:38:35.637Z,55.97
2022-12-25T01:39:40.221Z,56.88
2022-12-25T01:40:44.359Z,56.05
2022-12-25T01:41:49.210Z,55.45
2022-12-25T01:42:53.171Z,52.22
2022-12-25T01:44:29.458Z,61.03
2022-12-25T01:45:39.274Z,59.55
2022-12-25T01:46:47.875Z,65.90
2022-12-25T01:47:54.062Z,58.78
2022-12-25T01:48:59.141Z,63.33
2022-12-25T01:50:02.795Z,74.90
2022-12-25T01:51:09.323Z,60.05
2022-12-25T01:52:23.648Z,59.22
2022-12-25T01:53:29.311Z,72.45
2022-12-25T01:54:35.256Z,86.93
2022-12-25T01:55:39.676Z,73.45
2022-12-25T01:56:44.955Z,63.92
2022-12-25T01:57:48.752Z,61.10
2022-12-25T01:58:53.510Z,42.90
2022-12-25T01:59:58.574Z,43.67
2022-12-25T02:01:04.365Z,43.88
2022-12-25T02:02:12.313Z,71.95
2022-12-25T02:03:15.976Z,46.30
2022-12-25T02:04:39.740Z,42.75
2022-12-25T02:05:44.937Z,39.17
2022-12-25T02:06:49.884Z,41.38
2022-12-25T02:07:54.909Z,37.67
2022-12-25T02:08:59.998Z,37.45
2022-12-25T02:10:03.768Z,36.05
2022-12-25T02:11:07.284Z,32.97
2022-12-25T02:12:13.644Z,27.80
2022-12-25T02:13:19.487Z,27.80
2022-12-25T02:14:25.223Z,34.05
2022-12-25T02:15:35.300Z,34.00
2022-12-25T02:16:56.724Z,37.38
2022-12-25T02:18:04.262Z,36.30
2022-12-25T02:19:19.551Z,39.75
2022-12-25T02:20:42.201Z,35.67
2022-12-25T02:21:54.098Z,34.97
2022-12-25T02:23:14.249Z,37.72
2022-12-25T02:24:37.585Z,31.73
2022-12-25T02:25:50.024Z,31.63
2022-12-25T02:27:08.415Z,29.17
2022-12-25T02:28:12.486Z,32.50
2022-12-25T02:29:25.284Z,31.40
2022-12-25T02:30:30.976Z,56.13
2022-12-25T02:31:52.893Z,33.38
2022-12-25T02:33:24.579Z,36.97
2022-12-25T02:34:41.853Z,28.55
2022-12-25T02:35:48.806Z,36.53
2022-12-25T02:37:07.734Z,35.03
2022-12-25T02:38:16.617Z,32.97
2022-12-25T02:40:01.889Z,33.50
2022-12-25T02:41:10.972Z,32.60
2022-12-25T02:42:22.051Z,40.92
2022-12-25T02:43:49.048Z,29.65
2022-12-25T02:45:11.575Z,42.47
2022-12-25T02:46:35.228Z,38.35
2022-12-25T02:47:57.854Z,38.47
2022-12-25T02:49:22.971Z,40.40
2022-12-25T02:50:45.822Z,40.03
2022-12-25T02:52:10.920Z,32.67
2022-12-25T02:53:33.563Z,46.38
2022-12-25T02:55:00.430Z,33.65
2022-12-25T02:56:40.941Z,36.40
2022-12-25T02:58:08.744Z,36.00
2022-12-25T02:59:31.533Z,40.78
2022-12-25T03:00:59.277Z,36.78
2022-12-25T03:02:24.043Z,36.33
2022-12-25T03:03:49.908Z,40.78
2022-12-25T03:05:15.439Z,39.25
2022-12-25T03:06:40.023Z,38.00
2022-12-25T03:07:45.781Z,37.55
2022-12-25T03:08:54.035Z,41.92
2022-12-25T03:10:20.975Z,38.83
2022-12-25T03:11:34.899Z,39.25
2022-12-25T03:12:41.603Z,38.40
2022-12-25T03:13:47.741Z,38.08
2022-12-25T03:15:10.916Z,42.00
2022-12-25T03:16:33.173Z,38.03
2022-12-25T03:17:40.277Z,48.38
2022-12-25T03:18:44.788Z,47.95
2022-12-25T03:20:20.875Z,39.13
2022-12-25T03:21:43.583Z,44.85
2022-12-25T03:23:08.557Z,43.85
2022-12-25T03:24:32.646Z,41.38
2022-12-25T03:25:55.939Z,37.83
2022-12-25T03:27:01.129Z,38.13
2022-12-25T03:28:05.654Z,41.83
2022-12-25T03:29:09.083Z,40.78
2022-12-25T03:30:31.575Z,36.28
2022-12-25T03:31:37.592Z,39.83
2022-12-25T03:32:47.797Z,40.88
2022-12-25T03:34:27.763Z,39.28
2022-12-25T03:35:45.173Z,40.17
2022-12-25T03:37:16.738Z,37.30
2022-12-25T03:38:44.385Z,44.05
2022-12-25T03:39:59.933Z,42.15
2022-12-25T03:41:36.073Z,31.95
2022-12-25T03:43:03.383Z,41.13
2022-12-25T03:44:44.023Z,34.70
2022-12-25T03:46:10.888Z,38.25
2022-12-25T03:47:36.131Z,34.40
2022-12-25T03:49:01.467Z,42.08
2022-12-25T03:50:24.273Z,41.17
2022-12-25T03:51:49.493Z,39.08
2022-12-25T03:53:12.834Z,42.05
2022-12-25T03:54:38.318Z,35.83
2022-12-25T03:56:01.198Z,44.70
2022-12-25T03:57:22.766Z,39.20
2022-12-25T03:58:46.231Z,41.72
2022-12-25T04:00:09.645Z,34.92
2022-12-25T04:01:32.172Z,35.22
2022-12-25T04:02:56.696Z,33.63
2022-12-25T04:04:20.309Z,37.90
2022-12-25T04:05:43.376Z,37.28
2022-12-25T04:07:05.465Z,43.78
2022-12-25T04:08:30.083Z,36.13
2022-12-25T04:09:51.929Z,43.70
2022-12-25T04:11:19.341Z,37.05
2022-12-25T04:12:41.380Z,33.88
2022-12-25T04:15:26.075Z,43.10
2022-12-25T04:16:47.570Z,44.60
2022-12-25T04:18:11.758Z,36.75
2022-12-25T04:19:33.373Z,37.65
2022-12-25T04:20:56.632Z,36.50
2022-12-25T04:22:18.300Z,38.63
2022-12-25T04:25:02.422Z,32.40
2022-12-25T04:27:46.075Z,34.15
2022-12-25T04:29:10.798Z,28.88
2022-12-25T04:30:32.674Z,31.90
2022-12-25T04:31:55.083Z,24.98
2022-12-25T04:33:16.309Z,28.08
2022-12-25T04:34:37.020Z,24.83
2022-12-25T04:35:57.777Z,24.52
2022-12-25T04:36:59.782Z,28.55
2022-12-25T04:38:01.758Z,27.00
2022-12-25T04:39:03.717Z,26.75
2022-12-25T04:40:06.183Z,27.33
2022-12-25T04:41:11.781Z,27.38
2022-12-25T04:42:13.815Z,28.23
2022-12-25T04:43:15.858Z,27.50
2022-12-25T04:44:17.845Z,24.73
2022-12-25T04:45:20.166Z,25.70
2022-12-25T04:46:22.220Z,25.58
2022-12-25T04:47:24.357Z,30.73
2022-12-25T04:48:26.910Z,22.33
2022-12-25T04:49:28.960Z,33.33
2022-12-25T04:50:30.995Z,21.73
2022-12-25T04:51:32.963Z,27.00
2022-12-25T04:52:36.312Z,25.38
2022-12-25T04:53:38.231Z,28.20
2022-12-25T04:54:40.311Z,29.45
2022-12-25T04:55:42.313Z,30.98
2022-12-25T04:56:46.052Z,33.78
2022-12-25T04:57:48.259Z,36.17
2022-12-25T04:58:50.242Z,29.05
2022-12-25T04:59:52.177Z,29.02
2022-12-25T05:00:54.259Z,30.52
2022-12-25T05:01:56.307Z,34.80
2022-12-25T05:02:58.717Z,28.02
2022-12-25T05:04:00.819Z,31.20
2022-12-25T05:05:02.847Z,29.13
2022-12-25T05:06:05.648Z,25.13
2022-12-25T05:07:07.681Z,29.10
2022-12-25T05:08:09.731Z,29.08
2022-12-25T05:09:11.750Z,25.30
2022-12-25T05:10:13.796Z,26.52
2022-12-25T05:11:16.321Z,26.70
2022-12-25T05:12:18.298Z,28.77
2022-12-25T05:13:20.325Z,26.40
2022-12-25T05:14:22.333Z,28.27
2022-12-25T05:15:24.401Z,24.85
2022-12-25T05:16:26.648Z,30.98
2022-12-25T05:17:28.657Z,29.77
2022-12-25T05:18:30.700Z,26.30
2022-12-25T05:19:32.723Z,27.83
2022-12-25T05:20:39.720Z,32.00
2022-12-25T05:21:42.354Z,21.13
2022-12-25T05:22:44.320Z,27.52
2022-12-25T05:23:49.599Z,26.05
2022-12-25T05:24:51.569Z,21.05
2022-12-25T05:25:53.578Z,25.73
2022-12-25T05:26:55.806Z,21.85
2022-12-25T05:27:57.725Z,22.02
2022-12-25T05:29:00.313Z,22.83
2022-12-25T05:30:02.653Z,27.15
2022-12-25T05:31:04.770Z,25.00
2022-12-25T05:32:06.823Z,24.88
2022-12-25T05:33:08.786Z,25.63
2022-12-25T05:34:11.791Z,30.55
2022-12-25T05:35:13.955Z,27.08
2022-12-25T05:36:15.961Z,29.63
2022-12-25T05:37:17.935Z,26.55
2022-12-25T05:38:19.915Z,25.20
2022-12-25T05:39:21.932Z,26.20
2022-12-25T05:40:23.954Z,25.45
2022-12-25T05:41:29.122Z,27.90
2022-12-25T05:42:35.981Z,25.42
2022-12-25T05:43:38.057Z,25.13
2022-12-25T05:44:40.012Z,25.38
2022-12-25T05:45:42.011Z,24.50
2022-12-25T05:46:44.037Z,35.58
2022-12-25T05:47:46.147Z,27.15
2022-12-25T05:48:48.108Z,22.65
2022-12-25T05:49:50.048Z,20.58
2022-12-25T05:50:52.059Z,24.52
2022-12-25T05:51:54.094Z,20.80
2022-12-25T05:52:56.105Z,25.63
2022-12-25T05:53:58.227Z,25.77
2022-12-25T05:55:00.580Z,28.38
2022-12-25T05:56:03.571Z,25.50
2022-12-25T05:57:05.541Z,22.48
2022-12-25T05:58:07.985Z,27.65
2022-12-25T05:59:09.965Z,25.67
2022-12-25T06:00:12.237Z,30.38
2022-12-25T06:01:19.081Z,32.13
2022-12-25T06:02:21.296Z,27.58
2022-12-25T06:03:24.101Z,26.60
2022-12-25T06:04:26.985Z,23.77
2022-12-25T06:05:29.027Z,19.80
2022-12-25T06:06:30.933Z,27.20
2022-12-25T06:07:32.997Z,23.75
2022-12-25T06:08:35.281Z,26.88
2022-12-25T06:09:37.293Z,25.00
2022-12-25T06:10:39.264Z,24.45
2022-12-25T06:11:41.801Z,24.75
2022-12-25T06:12:43.859Z,20.77
2022-12-25T06:13:49.495Z,31.45
2022-12-25T06:14:51.459Z,18.08
2022-12-25T06:15:53.489Z,21.60
2022-12-25T06:16:55.616Z,22.27
2022-12-25T06:17:59.669Z,22.85
2022-12-25T06:19:01.555Z,29.48
2022-12-25T06:20:03.747Z,21.67
2022-12-25T06:21:06.446Z,23.33
2022-12-25T06:22:08.431Z,25.77
2022-12-25T06:23:10.815Z,23.23
2022-12-25T06:24:19.211Z,21.73
2022-12-25T06:25:23.077Z,23.17
2022-12-25T06:26:24.990Z,26.42
2022-12-25T06:27:27.218Z,19.05
2022-12-25T06:28:29.103Z,23.73
2022-12-25T06:29:31.064Z,22.48
2022-12-25T06:30:33.164Z,24.83
2022-12-25T06:31:35.192Z,23.25
2022-12-25T06:32:37.119Z,21.98
2022-12-25T06:33:39.260Z,25.38
2022-12-25T06:34:41.286Z,27.55
2022-12-25T06:35:43.262Z,24.83
2022-12-25T06:36:45.270Z,20.63
2022-12-25T06:37:47.287Z,25.67
2022-12-25T06:38:49.672Z,22.02
2022-12-25T06:39:51.653Z,20.90
2022-12-25T06:40:53.706Z,20.73
2022-12-25T06:41:56.132Z,18.60
2022-12-25T06:42:58.109Z,25.45
2022-12-25T06:44:00.977Z,22.13
2022-12-25T06:45:02.945Z,21.95
2022-12-25T06:46:05.832Z,21.15
2022-12-25T06:47:07.878Z,21.25
2022-12-25T06:48:09.834Z,20.65
2022-12-25T06:49:11.887Z,22.17
2022-12-25T06:50:13.899Z,19.38
2022-12-25T06:51:19.396Z,19.73
2022-12-25T06:52:21.387Z,22.30
2022-12-25T06:53:23.407Z,19.52
2022-12-25T06:54:25.396Z,23.90
2022-12-25T06:55:27.384Z,26.65
2022-12-25T06:56:29.486Z,23.10
2022-12-25T06:57:31.481Z,20.90
2022-12-25T06:58:33.469Z,18.73
2022-12-25T06:59:35.451Z,19.15
2022-12-25T07:00:37.486Z,17.88
2022-12-25T07:01:50.374Z,21.27
2022-12-25T07:02:52.756Z,20.05
2022-12-25T07:03:56.529Z,22.75
2022-12-25T07:04:59.339Z,21.98
2022-12-25T07:06:01.416Z,23.38
2022-12-25T07:07:08.775Z,23.17
2022-12-25T07:08:11.381Z,25.70
2022-12-25T07:09:13.371Z,24.13
2022-12-25T07:10:15.430Z,19.45
2022-12-25T07:11:17.712Z,20.95
2022-12-25T07:12:21.021Z,22.70
2022-12-25T07:13:23.022Z,26.42
2022-12-25T07:14:24.986Z,18.20
2022-12-25T07:15:26.961Z,19.00
2022-12-25T07:16:28.938Z,15.70
2022-12-25T07:17:31.037Z,15.43
2022-12-25T07:18:33.085Z,16.77
2022-12-25T07:19:39.673Z,14.93
2022-12-25T07:20:44.852Z,18.52
2022-12-25T07:21:47.491Z,12.63
2022-12-25T07:22:49.463Z,13.40
2022-12-25T07:23:51.546Z,19.67
2022-12-25T07:24:53.507Z,13.52
2022-12-25T07:25:59.312Z,17.13
2022-12-25T07:27:01.417Z,13.32
2022-12-25T07:28:03.491Z,48.17
2022-12-25T07:29:05.538Z,39.17
2022-12-25T07:30:07.934Z,33.80
2022-12-25T07:31:11.329Z,46.00
2022-12-25T07:32:13.328Z,37.03
2022-12-25T07:33:15.571Z,36.17
2022-12-25T07:34:17.902Z,34.17
2022-12-25T07:35:20.013Z,32.17
2022-12-25T07:36:22.035Z,27.50
2022-12-25T07:37:24.103Z,26.60
2022-12-25T07:38:26.209Z,29.30
2022-12-25T07:39:28.563Z,25.38
2022-12-25T07:40:30.534Z,28.55
2022-12-25T07:41:32.475Z,28.38
2022-12-25T07:42:48.736Z,27.25
2022-12-25T07:43:51.719Z,25.75
2022-12-25T07:44:53.646Z,24.40
2022-12-25T07:46:00.048Z,23.30
2022-12-25T07:47:02.087Z,20.95
2022-12-25T07:48:05.828Z,20.98
2022-12-25T07:49:10.142Z,22.10
2022-12-25T07:50:12.234Z,21.33
2022-12-25T07:51:14.907Z,25.88
2022-12-25T07:52:16.969Z,22.48
2022-12-25T07:53:18.959Z,26.17
2022-12-25T07:54:21.078Z,23.58
2022-12-25T07:55:23.137Z,26.55
2022-12-25T07:56:25.086Z,24.42
2022-12-25T07:57:27.021Z,28.25
2022-12-25T07:58:29.601Z,24.52
2022-12-25T07:59:31.539Z,21.58
2022-12-25T08:00:33.536Z,26.02
2022-12-25T08:01:35.733Z,19.92
2022-12-25T08:02:38.089Z,21.27
2022-12-25T08:03:40.495Z,22.80
2022-12-25T08:04:42.637Z,21.52
2022-12-25T08:05:44.757Z,22.15
2022-12-25T08:06:46.772Z,23.35
2022-12-25T08:07:57.137Z,21.92
2022-12-25T08:09:04.897Z,19.38
2022-12-25T08:10:07.199Z,19.30
2022-12-25T08:11:10.172Z,24.75
2022-12-25T08:12:12.241Z,24.35
2022-12-25T08:13:14.846Z,22.48
2022-12-25T08:14:16.955Z,22.40
2022-12-25T08:15:19.053Z,21.98
2022-12-25T08:16:21.155Z,21.15
2022-12-25T08:17:23.205Z,22.65
2022-12-25T08:18:29.913Z,19.38
2022-12-25T08:19:32.521Z,26.55
2022-12-25T08:20:34.470Z,21.40
2022-12-25T08:21:36.669Z,28.02
2022-12-25T08:22:38.710Z,21.05
2022-12-25T08:23:41.876Z,21.40
2022-12-25T08:24:44.218Z,19.85
2022-12-25T08:25:46.157Z,22.05
2022-12-25T08:26:48.441Z,18.70
2022-12-25T08:27:50.425Z,20.45
2022-12-25T08:28:52.443Z,19.52
2022-12-25T08:29:54.372Z,18.73
2022-12-25T08:30:56.993Z,26.25
2022-12-25T08:31:59.729Z,23.40
2022-12-25T08:33:01.958Z,24.75
2022-12-25T08:34:04.721Z,26.92
2022-12-25T08:35:06.964Z,29.10
2022-12-25T08:36:09.967Z,22.65
2022-12-25T08:37:12.218Z,20.17
2022-12-25T08:38:14.499Z,21.08
2022-12-25T08:39:16.525Z,26.08
2022-12-25T08:40:18.591Z,35.67
2022-12-25T08:41:20.604Z,23.58
2022-12-25T08:42:22.600Z,20.50
2022-12-25T08:43:24.694Z,29.02
2022-12-25T08:44:26.645Z,22.67
2022-12-25T08:45:34.705Z,20.02
2022-12-25T08:46:37.344Z,20.33
2022-12-25T08:47:39.316Z,24.02
2022-12-25T08:48:46.781Z,19.25
2022-12-25T08:49:48.804Z,18.08
2022-12-25T08:50:51.846Z,25.83
2022-12-25T08:51:53.772Z,26.70
2022-12-25T08:52:55.797Z,19.00
2022-12-25T08:53:59.417Z,19.27
2022-12-25T08:55:01.442Z,18.92
2022-12-25T08:56:04.729Z,17.52
2022-12-25T08:57:06.774Z,15.48
2022-12-25T08:58:08.762Z,14.85
2022-12-25T08:59:11.958Z,16.83
2022-12-25T09:00:14.199Z,19.58
2022-12-25T09:01:16.383Z,24.92
2022-12-25T09:02:18.859Z,19.77
2022-12-25T09:03:20.978Z,39.65
2022-12-25T09:04:23.059Z,14.52
2022-12-25T09:05:25.016Z,19.58
2022-12-25T09:06:26.935Z,17.02
2022-12-25T09:07:29.201Z,13.82
2022-12-25T09:08:31.420Z,15.35
2022-12-25T09:09:33.442Z,17.90
2022-12-25T09:10:37.003Z,19.95
2022-12-25T09:11:39.013Z,15.20
2022-12-25T09:12:41.018Z,14.98
2022-12-25T09:13:43.032Z,20.33
2022-12-25T09:14:45.160Z,16.05
2022-12-25T09:15:47.156Z,14.73
2022-12-25T09:16:52.261Z,559.75
2022-12-25T09:17:54.266Z,19.40
2022-12-25T09:18:57.425Z,15.55
2022-12-25T09:19:59.783Z,17.05
2022-12-25T09:21:05.766Z,17.70
2022-12-25T09:22:07.718Z,25.48
2022-12-25T09:23:13.743Z,18.77
2022-12-25T09:24:16.684Z,18.08
2022-12-25T09:25:18.635Z,14.85
2022-12-25T09:26:20.751Z,12.52
2022-12-25T09:27:22.798Z,15.32
2022-12-25T09:28:24.755Z,20.88
2022-12-25T09:29:26.786Z,15.77
2022-12-25T09:30:28.843Z,28.13
2022-12-25T09:31:30.906Z,23.15
2022-12-25T09:32:32.949Z,19.48
2022-12-25T09:33:35.004Z,14.32
2022-12-25T09:34:36.975Z,13.52
2022-12-25T09:35:38.923Z,20.38
2022-12-25T09:36:40.858Z,24.15
2022-12-25T09:37:42.820Z,20.58
2022-12-25T09:38:44.857Z,16.05
2022-12-25T09:39:47.133Z,18.63
2022-12-25T09:40:49.989Z,14.70
2022-12-25T09:42:24.469Z,19.70
2022-12-25T09:43:27.242Z,15.00
2022-12-25T09:44:34.092Z,22.77
2022-12-25T09:45:37.855Z,17.77
2022-12-25T09:46:42.241Z,16.85
2022-12-25T09:47:45.654Z,11.48
2022-12-25T09:49:07.578Z,13.32
2022-12-25T09:52:16.741Z,21.65
2022-12-25T09:53:30.408Z,13.27
2022-12-25T09:54:37.936Z,13.45
2022-12-25T09:55:43.735Z,13.15
2022-12-25T09:56:45.684Z,17.02
2022-12-25T09:57:51.747Z,13.18
2022-12-25T09:58:54.043Z,10.60
2022-12-25T09:59:56.553Z,25.05
2022-12-25T10:01:21.783Z,20.95
2022-12-25T10:02:34.408Z,14.50
2022-12-25T10:03:54.979Z,10.90
2022-12-25T10:05:03.349Z,15.43
2022-12-25T10:06:22.671Z,16.08
2022-12-25T10:07:51.016Z,18.92
2022-12-25T10:09:09.382Z,17.17
2022-12-25T10:10:21.348Z,18.38
2022-12-25T10:11:26.038Z,15.05
2022-12-25T10:12:54.105Z,18.23
2022-12-25T10:14:09.223Z,13.88
2022-12-25T10:15:30.664Z,20.27
2022-12-25T10:16:38.913Z,16.63
2022-12-25T10:17:49.595Z,14.40
2022-12-25T10:18:54.863Z,14.88
2022-12-25T10:19:59.563Z,11.85
2022-12-25T10:21:05.634Z,17.27
2022-12-25T10:22:14.671Z,14.93
2022-12-25T10:23:19.364Z,12.18
2022-12-25T10:24:24.044Z,11.88
2022-12-25T10:25:26.569Z,12.23
2022-12-25T10:26:30.789Z,18.65
2022-12-25T10:27:34.992Z,17.65
2022-12-25T10:28:40.071Z,17.25
2022-12-25T10:29:42.792Z,16.10
2022-12-25T10:30:45.635Z,20.08
2022-12-25T10:31:49.127Z,20.42
2022-12-25T10:32:51.617Z,15.90
2022-12-25T10:33:54.337Z,13.60
2022-12-25T10:34:56.449Z,14.23
2022-12-25T10:35:58.525Z,12.75
2022-12-25T10:37:02.191Z,16.20
2022-12-25T10:38:10.661Z,17.83
2022-12-25T10:39:17.090Z,14.57
2022-12-25T10:40:29.060Z,18.92
2022-12-25T10:41:43.228Z,17.38
2022-12-25T10:42:46.587Z,22.00
2022-12-25T10:43:53.784Z,18.13
2022-12-25T10:45:00.421Z,22.33
2022-12-25T10:46:08.352Z,16.55
2022-12-25T10:47:10.398Z,20.77
2022-12-25T10:48:16.749Z,20.25
2022-12-25T10:49:20.875Z,18.65
2022-12-25T10:50:26.115Z,21.35
2022-12-25T10:51:33.113Z,26.85
2022-12-25T10:52:35.065Z,25.42
2022-12-25T10:53:41.115Z,17.45
2022-12-25T10:54:43.862Z,20.20
2022-12-25T10:55:59.456Z,18.60
2022-12-25T10:57:16.345Z,21.30
2022-12-25T10:58:19.670Z,19.85
2022-12-25T10:59:21.681Z,20.00
2022-12-25T11:00:24.986Z,16.42
2022-12-25T11:01:28.092Z,20.58
2022-12-25T11:02:31.962Z,18.05
2022-12-25T11:03:35.971Z,19.98
2022-12-25T11:04:38.057Z,21.75
2022-12-25T11:05:40.082Z,15.98
2022-12-25T11:06:42.857Z,18.67
2022-12-25T11:07:55.071Z,19.63
2022-12-25T11:08:58.087Z,17.85
2022-12-25T11:10:05.776Z,19.42
2022-12-25T11:11:18.158Z,12.95
2022-12-25T11:12:20.982Z,16.95
2022-12-25T11:13:33.560Z,15.60
2022-12-25T11:14:35.465Z,21.98
2022-12-25T11:15:42.529Z,14.52
2022-12-25T11:16:44.691Z,18.02
2022-12-25T11:17:49.231Z,16.92
2022-12-25T11:18:52.870Z,18.15
2022-12-25T11:19:56.084Z,17.83
2022-12-25T11:20:59.467Z,17.10
2022-12-25T11:22:02.542Z,14.60
2022-12-25T11:23:09.977Z,19.33
2022-12-25T11:24:19.407Z,12.90
2022-12-25T11:25:22.857Z,16.75
2022-12-25T11:26:25.159Z,17.65
2022-12-25T11:27:28.385Z,53.88
2022-12-25T11:28:31.599Z,132.43
2022-12-25T11:29:36.507Z,63.75
2022-12-25T11:30:40.368Z,249.38
2022-12-25T11:31:43.472Z,244.70
2022-12-25T11:32:46.800Z,305.33
2022-12-25T11:34:15.160Z,289.52
2022-12-25T11:35:18.416Z,23.75
2022-12-25T11:36:24.842Z,24.63
2022-12-25T11:37:26.974Z,43.75
2022-12-25T11:38:28.935Z,23.83
2022-12-25T11:39:32.818Z,17.13
2022-12-25T11:40:55.043Z,15.70
2022-12-25T11:42:02.643Z,17.70
2022-12-25T11:43:16.873Z,26.48
2022-12-25T11:44:31.067Z,16.58
2022-12-25T11:45:38.714Z,14.68
2022-12-25T11:46:43.236Z,17.15
2022-12-25T11:47:45.512Z,15.45
2022-12-25T11:48:50.203Z,13.40
2022-12-25T11:50:00.681Z,18.30
2022-12-25T11:51:05.119Z,12.57
2022-12-25T11:52:11.063Z,12.48
2022-12-25T11:53:16.128Z,13.75
2022-12-25T11:54:22.517Z,13.70
2022-12-25T11:55:41.176Z,14.18
2022-12-25T11:56:43.707Z,13.52
2022-12-25T11:57:47.699Z,10.38
2022-12-25T11:58:51.301Z,18.80
2022-12-25T11:59:56.787Z,14.50
2022-12-25T12:01:00.837Z,8.88
2022-12-25T12:02:21.687Z,11.07
2022-12-25T12:03:32.865Z,10.63
2022-12-25T12:04:42.631Z,11.60
2022-12-25T12:05:45.008Z,11.98
2022-12-25T12:07:11.009Z,10.68
2022-12-25T12:08:14.597Z,11.77
2022-12-25T12:09:16.608Z,8.27
2022-12-25T12:10:19.901Z,6.72
2022-12-25T12:11:25.661Z,8.70
2022-12-25T12:12:31.359Z,10.88
2022-12-25T12:13:45.918Z,9.80
2022-12-25T12:14:57.603Z,8.98
2022-12-25T12:17:01.581Z,13.02
2022-12-25T12:18:18.965Z,11.73
2022-12-25T12:19:28.766Z,8.45
2022-12-25T12:20:33.531Z,7.45
2022-12-25T12:21:35.556Z,7.07
2022-12-25T12:22:37.894Z,8.27
2022-12-25T12:24:02.639Z,7.18
2022-12-25T12:25:07.987Z,11.10
2022-12-25T12:26:17.305Z,10.38
2022-12-25T12:27:19.301Z,7.40
2022-12-25T12:28:26.333Z,8.93
2022-12-25T12:29:29.817Z,10.88
2022-12-25T12:30:34.861Z,12.15
2022-12-25T12:31:45.452Z,6.68
2022-12-25T12:32:51.172Z,10.80
2022-12-25T12:33:59.383Z,10.07
2022-12-25T12:35:07.156Z,16.75
2022-12-25T12:36:12.319Z,10.23
2022-12-25T12:37:25.205Z,7.68
2022-12-25T12:38:27.643Z,9.55
2022-12-25T12:39:33.783Z,11.80
2022-12-25T12:40:37.815Z,6.57
2022-12-25T12:41:45.026Z,8.70
2022-12-25T12:42:50.683Z,8.07
2022-12-25T12:43:55.140Z,6.65
2022-12-25T12:44:58.277Z,10.77
2022-12-25T12:46:21.563Z,12.95
2022-12-25T12:47:30.891Z,14.07
2022-12-25T12:48:38.571Z,20.70
2022-12-25T12:49:40.999Z,27.77
2022-12-25T12:50:43.273Z,8.75
2022-12-25T12:51:45.199Z,60.35
2022-12-25T12:52:47.488Z,50.10
2022-12-25T12:53:49.740Z,19.42
2022-12-25T12:54:55.169Z,16.27
2022-12-25T12:55:57.468Z,60.00
2022-12-25T12:57:03.384Z,40.03
2022-12-25T12:58:06.088Z,41.55
2022-12-25T12:59:09.596Z,34.03
2022-12-25T13:00:15.282Z,150.82
2022-12-25T13:01:49.702Z,11.32
2022-12-25T13:03:06.693Z,60.28
2022-12-25T13:04:28.837Z,57.47
2022-12-25T13:05:34.662Z,40.03
2022-12-25T13:06:42.660Z,27.02
2022-12-25T13:08:03.108Z,13.90
2022-12-25T13:09:27.670Z,7.20
2022-12-25T13:10:37.965Z,19.58
2022-12-25T13:11:41.206Z,6.47
2022-12-25T13:12:43.191Z,14.13
2022-12-25T13:13:46.730Z,9.15
2022-12-25T13:14:50.048Z,14.23
2022-12-25T13:15:52.288Z,8.07
2022-12-25T13:16:54.864Z,11.70
2022-12-25T13:18:05.898Z,12.52
2022-12-25T13:19:08.784Z,9.60
2022-12-25T13:20:20.230Z,18.65
2022-12-25T13:21:24.612Z,10.57
2022-12-25T13:22:31.485Z,15.13
2022-12-25T13:23:34.813Z,12.13
2022-12-25T13:24:37.493Z,11.05
2022-12-25T13:25:39.552Z,14.55
2022-12-25T13:26:41.769Z,13.00
2022-12-25T13:27:44.085Z,14.65
2022-12-25T13:28:47.038Z,13.23
2022-12-25T13:29:49.021Z,16.05
2022-12-25T13:30:51.079Z,9.57
2022-12-25T13:31:53.232Z,8.48
2022-12-25T13:32:55.435Z,9.95
2022-12-25T13:33:58.722Z,11.00
2022-12-25T13:35:00.956Z,14.82
2022-12-25T13:36:03.204Z,14.80
2022-12-25T13:37:09.652Z,10.10
2022-12-25T13:38:14.944Z,11.35
2022-12-25T13:39:17.865Z,14.93
2022-12-25T13:40:25.340Z,12.38
2022-12-25T13:41:59.612Z,13.38
2022-12-25T13:43:02.098Z,11.70
2022-12-25T13:44:07.082Z,11.20
2022-12-25T13:45:14.536Z,15.70
2022-12-25T13:46:16.769Z,12.48
2022-12-25T13:47:18.985Z,14.48
2022-12-25T13:48:22.108Z,14.30
2022-12-25T13:49:24.614Z,8.52
2022-12-25T13:50:27.979Z,8.60
2022-12-25T13:51:30.027Z,14.10
2022-12-25T13:52:36.395Z,15.23
2022-12-25T13:53:38.320Z,15.75
2022-12-25T13:54:40.557Z,17.83
2022-12-25T13:55:44.422Z,17.63
2022-12-25T13:56:51.066Z,15.07
2022-12-25T13:58:00.101Z,54.38
2022-12-25T13:59:03.159Z,24.50
2022-12-25T14:00:06.138Z,38.92
2022-12-25T14:01:08.878Z,39.10
2022-12-25T14:02:18.810Z,15.05
2022-12-25T14:03:27.080Z,28.80
2022-12-25T14:04:29.123Z,40.55
2022-12-25T14:05:37.879Z,19.45
2022-12-25T14:06:44.289Z,32.25
2022-12-25T14:07:50.604Z,27.33
2022-12-25T14:08:54.209Z,19.42
2022-12-25T14:10:01.980Z,11.27
2022-12-25T14:11:06.209Z,22.95
2022-12-25T14:12:10.740Z,24.00
2022-12-25T14:13:15.051Z,12.70
2022-12-25T14:14:21.887Z,18.35
2022-12-25T14:15:24.635Z,13.00
2022-12-25T14:16:27.982Z,52.05
2022-12-25T14:17:30.044Z,18.85
2022-12-25T14:18:32.613Z,32.88
2022-12-25T14:19:34.800Z,21.98
2022-12-25T14:20:54.623Z,32.85
2022-12-25T14:21:59.316Z,37.50
2022-12-25T14:23:01.402Z,15.15
2022-12-25T14:24:03.460Z,41.50
2022-12-25T14:25:13.363Z,16.65
2022-12-25T14:26:18.989Z,14.30
2022-12-25T14:27:21.193Z,15.57